Hauptseite
METAR-TAF:

METAR-TAF

Flughäfen :

Upshur County Regional Airport

Buckhannon, West Virginia, Vereinigte Staaten

Breite: 39-00N, Länge: 080-16W, Höhe: 498 m

Beobachtung

Neuester Wetterbericht von vor 16 Minuten, um 20:35 UTC
Wind 12 kt aus Nordwest, Böen bis zu 18 kt
Temperatur 19°C
Luftfeuchtigkeit 18%
Luftdruck 1014 hPa
Sichtweite: 16.1 km
Himmel klar

METAR: KW22 032035Z AUTO 32012G18KT 10SM CLR 19/M06 A2993 RMK AO2

Zeit: 16:51 (20:51 UTC)


TAF: fehlend

Wetterbeobachtungen und Prognosen von mehr als 4000 Flughäfen (METAR und TAF Bericht).

Die verfügbaren Stationen werden durch gelbe und rote Markierungen auf der Karte dargestellt.

Führen Sie die Maus auf sie, um den Namen der Station zu sehen.

Darauf klicken, um die Beobachtung von Wetterbeobachtungen und Prognosen zu sehen.

Um die Karte zu ändern : klicken Sie auf den grünen Tasten mit einem schwarzen Kreuz Zum Vergrößern, auf den grünen Button mit einem Gedankenstrich zu verkleinern, oder auf die grünen Pfeile für benachbarte Karten.


METAR-TAF: